sensor_id;sensor_type;location;lat;lon;timestamp;P1;durP1;ratioP1;P2;durP2;ratioP2
62071;SDS011;48031;48.542;13.232;2023-04-03T00:00:46;2.00;;;1.90;;
62071;SDS011;48031;48.542;13.232;2023-04-03T00:04:48;2.45;;;1.90;;
62071;SDS011;48031;48.542;13.232;2023-04-03T00:08:49;3.10;;;2.60;;
62071;SDS011;48031;48.542;13.232;2023-04-03T00:12:52;2.92;;;2.25;;
62071;SDS011;48031;48.542;13.232;2023-04-03T00:16:53;2.33;;;2.10;;
62071;SDS011;48031;48.542;13.232;2023-04-03T00:20:55;2.28;;;2.08;;
62071;SDS011;48031;48.542;13.232;2023-04-03T00:24:57;2.25;;;1.77;;
62071;SDS011;48031;48.542;13.232;2023-04-03T00:28:59;1.60;;;1.50;;
62071;SDS011;48031;48.542;13.232;2023-04-03T00:33:02;1.50;;;1.40;;
62071;SDS011;48031;48.542;13.232;2023-04-03T00:37:04;2.00;;;1.50;;
62071;SDS011;48031;48.542;13.232;2023-04-03T00:41:06;1.80;;;1.48;;
62071;SDS011;48031;48.542;13.232;2023-04-03T00:45:26;1.45;;;1.35;;
62071;SDS011;48031;48.542;13.232;2023-04-03T00:49:31;2.20;;;1.83;;
62071;SDS011;48031;48.542;13.232;2023-04-03T00:53:35;2.10;;;1.90;;
62071;SDS011;48031;48.542;13.232;2023-04-03T00:57:42;2.10;;;1.90;;
62071;SDS011;48031;48.542;13.232;2023-04-03T01:01:45;2.78;;;2.30;;
62071;SDS011;48031;48.542;13.232;2023-04-03T01:05:47;1.92;;;1.83;;
62071;SDS011;48031;48.542;13.232;2023-04-03T01:09:51;2.20;;;1.83;;
62071;SDS011;48031;48.542;13.232;2023-04-03T01:13:57;1.95;;;1.60;;
62071;SDS011;48031;48.542;13.232;2023-04-03T01:18:00;1.70;;;1.60;;
62071;SDS011;48031;48.542;13.232;2023-04-03T01:22:04;2.85;;;2.17;;
62071;SDS011;48031;48.542;13.232;2023-04-03T01:26:20;1.70;;;1.60;;
62071;SDS011;48031;48.542;13.232;2023-04-03T01:30:24;1.70;;;1.60;;
62071;SDS011;48031;48.542;13.232;2023-04-03T01:34:33;2.33;;;1.92;;
62071;SDS011;48031;48.542;13.232;2023-04-03T01:38:35;2.00;;;1.65;;
62071;SDS011;48031;48.542;13.232;2023-04-03T01:42:37;2.20;;;2.00;;
62071;SDS011;48031;48.542;13.232;2023-04-03T01:46:39;1.73;;;1.63;;
62071;SDS011;48031;48.542;13.232;2023-04-03T01:50:42;1.50;;;1.40;;
62071;SDS011;48031;48.542;13.232;2023-04-03T01:54:44;1.60;;;1.40;;
62071;SDS011;48031;48.542;13.232;2023-04-03T01:58:46;1.70;;;1.60;;
62071;SDS011;48031;48.542;13.232;2023-04-03T02:02:48;2.00;;;1.80;;
62071;SDS011;48031;48.542;13.232;2023-04-03T02:06:50;3.08;;;2.60;;
62071;SDS011;48031;48.542;13.232;2023-04-03T02:10:51;2.13;;;1.88;;
62071;SDS011;48031;48.542;13.232;2023-04-03T02:14:53;2.30;;;2.10;;
62071;SDS011;48031;48.542;13.232;2023-04-03T02:18:55;1.70;;;1.60;;
62071;SDS011;48031;48.542;13.232;2023-04-03T02:22:58;2.00;;;1.75;;
62071;SDS011;48031;48.542;13.232;2023-04-03T02:27:01;2.28;;;1.83;;
62071;SDS011;48031;48.542;13.232;2023-04-03T02:31:03;1.38;;;1.27;;
62071;SDS011;48031;48.542;13.232;2023-04-03T02:35:06;1.52;;;1.42;;
62071;SDS011;48031;48.542;13.232;2023-04-03T02:39:09;1.40;;;1.30;;
62071;SDS011;48031;48.542;13.232;2023-04-03T02:43:11;1.30;;;1.20;;
62071;SDS011;48031;48.542;13.232;2023-04-03T02:47:13;1.80;;;1.70;;
62071;SDS011;48031;48.542;13.232;2023-04-03T02:51:14;1.60;;;1.50;;
62071;SDS011;48031;48.542;13.232;2023-04-03T02:55:16;1.50;;;1.40;;
62071;SDS011;48031;48.542;13.232;2023-04-03T02:59:21;1.70;;;1.60;;
62071;SDS011;48031;48.542;13.232;2023-04-03T03:03:23;1.77;;;1.67;;
62071;SDS011;48031;48.542;13.232;2023-04-03T03:07:25;1.55;;;1.45;;
62071;SDS011;48031;48.542;13.232;2023-04-03T03:11:27;1.60;;;1.50;;
62071;SDS011;48031;48.542;13.232;2023-04-03T03:15:29;1.60;;;1.50;;
62071;SDS011;48031;48.542;13.232;2023-04-03T03:19:31;1.40;;;1.30;;
62071;SDS011;48031;48.542;13.232;2023-04-03T03:23:34;1.50;;;1.40;;
62071;SDS011;48031;48.542;13.232;2023-04-03T03:27:36;1.50;;;1.40;;
62071;SDS011;48031;48.542;13.232;2023-04-03T03:31:38;1.20;;;1.20;;
62071;SDS011;48031;48.542;13.232;2023-04-03T03:35:41;1.33;;;1.23;;
62071;SDS011;48031;48.542;13.232;2023-04-03T03:39:43;1.40;;;1.30;;
62071;SDS011;48031;48.542;13.232;2023-04-03T03:43:46;1.70;;;1.60;;
62071;SDS011;48031;48.542;13.232;2023-04-03T03:47:50;1.75;;;1.65;;
62071;SDS011;48031;48.542;13.232;2023-04-03T03:51:52;1.90;;;1.70;;
62071;SDS011;48031;48.542;13.232;2023-04-03T03:55:54;1.90;;;1.80;;
62071;SDS011;48031;48.542;13.232;2023-04-03T03:59:59;1.92;;;1.73;;
62071;SDS011;48031;48.542;13.232;2023-04-03T04:04:01;1.70;;;1.60;;
62071;SDS011;48031;48.542;13.232;2023-04-03T04:08:05;1.60;;;1.50;;
62071;SDS011;48031;48.542;13.232;2023-04-03T04:12:08;2.03;;;1.90;;
62071;SDS011;48031;48.542;13.232;2023-04-03T04:16:11;2.28;;;2.00;;
62071;SDS011;48031;48.542;13.232;2023-04-03T04:20:13;1.90;;;1.80;;
62071;SDS011;48031;48.542;13.232;2023-04-03T04:24:16;1.58;;;1.48;;
62071;SDS011;48031;48.542;13.232;2023-04-03T04:28:18;1.80;;;1.70;;
62071;SDS011;48031;48.542;13.232;2023-04-03T04:32:23;1.20;;;1.20;;
62071;SDS011;48031;48.542;13.232;2023-04-03T04:36:26;1.50;;;1.40;;
62071;SDS011;48031;48.542;13.232;2023-04-03T04:40:28;1.50;;;1.40;;
62071;SDS011;48031;48.542;13.232;2023-04-03T04:44:33;1.55;;;1.30;;
62071;SDS011;48031;48.542;13.232;2023-04-03T04:48:36;1.50;;;1.40;;
62071;SDS011;48031;48.542;13.232;2023-04-03T04:52:39;1.80;;;1.70;;
62071;SDS011;48031;48.542;13.232;2023-04-03T04:56:43;1.70;;;1.60;;
62071;SDS011;48031;48.542;13.232;2023-04-03T05:00:45;1.80;;;1.70;;
62071;SDS011;48031;48.542;13.232;2023-04-03T05:04:47;3.00;;;1.90;;
62071;SDS011;48031;48.542;13.232;2023-04-03T05:08:55;1.80;;;1.70;;
62071;SDS011;48031;48.542;13.232;2023-04-03T05:12:58;3.88;;;2.42;;
62071;SDS011;48031;48.542;13.232;2023-04-03T05:17:00;2.75;;;2.10;;
62071;SDS011;48031;48.542;13.232;2023-04-03T05:21:04;2.47;;;2.10;;
62071;SDS011;48031;48.542;13.232;2023-04-03T05:25:06;2.60;;;2.20;;
62071;SDS011;48031;48.542;13.232;2023-04-03T05:29:09;2.88;;;2.20;;
62071;SDS011;48031;48.542;13.232;2023-04-03T05:33:11;1.90;;;1.70;;
62071;SDS011;48031;48.542;13.232;2023-04-03T05:37:21;1.60;;;1.50;;
62071;SDS011;48031;48.542;13.232;2023-04-03T05:41:25;2.40;;;2.20;;
62071;SDS011;48031;48.542;13.232;2023-04-03T05:45:27;1.92;;;1.80;;
62071;SDS011;48031;48.542;13.232;2023-04-03T05:49:31;2.50;;;2.30;;
62071;SDS011;48031;48.542;13.232;2023-04-03T05:53:35;2.10;;;1.88;;
62071;SDS011;48031;48.542;13.232;2023-04-03T05:57:41;2.30;;;2.10;;
62071;SDS011;48031;48.542;13.232;2023-04-03T06:01:43;2.55;;;2.33;;
62071;SDS011;48031;48.542;13.232;2023-04-03T06:05:45;2.97;;;2.15;;
62071;SDS011;48031;48.542;13.232;2023-04-03T06:09:48;2.38;;;2.15;;
62071;SDS011;48031;48.542;13.232;2023-04-03T06:13:51;5.43;;;3.30;;
62071;SDS011;48031;48.542;13.232;2023-04-03T06:17:53;4.25;;;2.38;;
62071;SDS011;48031;48.542;13.232;2023-04-03T06:21:54;2.55;;;2.13;;
62071;SDS011;48031;48.542;13.232;2023-04-03T06:25:58;3.08;;;2.72;;
62071;SDS011;48031;48.542;13.232;2023-04-03T06:29:59;4.32;;;2.60;;
62071;SDS011;48031;48.542;13.232;2023-04-03T06:34:01;4.03;;;3.25;;
62071;SDS011;48031;48.542;13.232;2023-04-03T06:38:04;3.65;;;2.72;;
62071;SDS011;48031;48.542;13.232;2023-04-03T06:42:10;4.93;;;2.92;;
62071;SDS011;48031;48.542;13.232;2023-04-03T06:46:21;3.47;;;2.75;;
62071;SDS011;48031;48.542;13.232;2023-04-03T06:50:24;5.05;;;3.95;;
62071;SDS011;48031;48.542;13.232;2023-04-03T06:54:26;5.00;;;3.92;;
62071;SDS011;48031;48.542;13.232;2023-04-03T06:58:28;5.25;;;3.80;;
62071;SDS011;48031;48.542;13.232;2023-04-03T07:02:30;4.47;;;3.67;;
62071;SDS011;48031;48.542;13.232;2023-04-03T07:06:32;5.70;;;3.80;;
62071;SDS011;48031;48.542;13.232;2023-04-03T07:10:34;4.05;;;2.92;;
62071;SDS011;48031;48.542;13.232;2023-04-03T07:14:36;3.10;;;2.80;;
62071;SDS011;48031;48.542;13.232;2023-04-03T07:18:38;3.45;;;3.00;;
62071;SDS011;48031;48.542;13.232;2023-04-03T07:22:40;3.65;;;3.08;;
62071;SDS011;48031;48.542;13.232;2023-04-03T07:26:42;4.97;;;2.88;;
62071;SDS011;48031;48.542;13.232;2023-04-03T07:30:51;4.32;;;3.15;;
62071;SDS011;48031;48.542;13.232;2023-04-03T07:34:54;4.00;;;3.30;;
62071;SDS011;48031;48.542;13.232;2023-04-03T07:38:56;5.10;;;3.25;;
62071;SDS011;48031;48.542;13.232;2023-04-03T07:42:58;4.90;;;3.67;;
62071;SDS011;48031;48.542;13.232;2023-04-03T07:47:00;4.57;;;3.20;;
62071;SDS011;48031;48.542;13.232;2023-04-03T07:51:03;3.35;;;3.03;;
62071;SDS011;48031;48.542;13.232;2023-04-03T07:55:06;4.13;;;2.80;;
62071;SDS011;48031;48.542;13.232;2023-04-03T07:59:08;4.53;;;3.45;;
62071;SDS011;48031;48.542;13.232;2023-04-03T08:03:11;4.53;;;3.53;;
62071;SDS011;48031;48.542;13.232;2023-04-03T08:07:14;3.78;;;2.85;;
62071;SDS011;48031;48.542;13.232;2023-04-03T08:11:16;10.05;;;3.13;;
62071;SDS011;48031;48.542;13.232;2023-04-03T08:15:20;3.22;;;2.60;;
62071;SDS011;48031;48.542;13.232;2023-04-03T08:19:22;2.75;;;2.50;;
62071;SDS011;48031;48.542;13.232;2023-04-03T08:23:27;3.88;;;2.58;;
62071;SDS011;48031;48.542;13.232;2023-04-03T08:27:29;3.25;;;2.47;;
62071;SDS011;48031;48.542;13.232;2023-04-03T08:31:30;4.20;;;2.60;;
62071;SDS011;48031;48.542;13.232;2023-04-03T08:35:32;3.30;;;2.20;;
62071;SDS011;48031;48.542;13.232;2023-04-03T08:39:36;2.15;;;1.90;;
62071;SDS011;48031;48.542;13.232;2023-04-03T08:43:53;2.35;;;2.15;;
62071;SDS011;48031;48.542;13.232;2023-04-03T08:48:12;2.33;;;1.90;;
62071;SDS011;48031;48.542;13.232;2023-04-03T08:52:19;2.25;;;1.70;;
62071;SDS011;48031;48.542;13.232;2023-04-03T08:56:41;2.50;;;1.70;;
62071;SDS011;48031;48.542;13.232;2023-04-03T09:00:44;2.63;;;1.90;;
62071;SDS011;48031;48.542;13.232;2023-04-03T09:04:50;1.65;;;1.55;;
62071;SDS011;48031;48.542;13.232;2023-04-03T09:13:34;1.95;;;1.77;;
62071;SDS011;48031;48.542;13.232;2023-04-03T09:21:45;2.03;;;1.65;;
62071;SDS011;48031;48.542;13.232;2023-04-03T09:25:47;1.55;;;1.42;;
62071;SDS011;48031;48.542;13.232;2023-04-03T09:29:52;2.22;;;1.67;;
62071;SDS011;48031;48.542;13.232;2023-04-03T09:33:58;2.45;;;1.50;;
62071;SDS011;48031;48.542;13.232;2023-04-03T09:42:15;2.33;;;1.80;;
62071;SDS011;48031;48.542;13.232;2023-04-03T09:46:33;5.78;;;1.77;;
62071;SDS011;48031;48.542;13.232;2023-04-03T09:50:36;2.42;;;1.50;;
62071;SDS011;48031;48.542;13.232;2023-04-03T09:54:38;2.75;;;2.15;;
62071;SDS011;48031;48.542;13.232;2023-04-03T09:58:43;1.65;;;1.40;;
62071;SDS011;48031;48.542;13.232;2023-04-03T10:02:52;1.58;;;1.42;;
62071;SDS011;48031;48.542;13.232;2023-04-03T10:06:57;2.20;;;1.90;;
62071;SDS011;48031;48.542;13.232;2023-04-03T10:11:10;1.88;;;1.38;;
62071;SDS011;48031;48.542;13.232;2023-04-03T10:15:20;9.93;;;4.25;;
62071;SDS011;48031;48.542;13.232;2023-04-03T10:23:34;2.65;;;1.38;;
62071;SDS011;48031;48.542;13.232;2023-04-03T10:27:58;2.10;;;1.50;;
62071;SDS011;48031;48.542;13.232;2023-04-03T10:40:34;2.85;;;1.90;;
62071;SDS011;48031;48.542;13.232;2023-04-03T10:54:04;1.30;;;1.20;;
62071;SDS011;48031;48.542;13.232;2023-04-03T10:58:17;1.55;;;1.40;;
62071;SDS011;48031;48.542;13.232;2023-04-03T11:07:01;2.33;;;1.50;;
62071;SDS011;48031;48.542;13.232;2023-04-03T11:11:19;2.40;;;2.20;;
62071;SDS011;48031;48.542;13.232;2023-04-03T11:15:23;1.65;;;1.55;;
62071;SDS011;48031;48.542;13.232;2023-04-03T11:19:31;1.75;;;1.33;;
62071;SDS011;48031;48.542;13.232;2023-04-03T11:23:39;2.08;;;1.10;;
62071;SDS011;48031;48.542;13.232;2023-04-03T11:27:57;1.50;;;1.40;;
62071;SDS011;48031;48.542;13.232;2023-04-03T11:36:28;2.60;;;2.40;;
62071;SDS011;48031;48.542;13.232;2023-04-03T11:40:37;2.30;;;2.10;;
62071;SDS011;48031;48.542;13.232;2023-04-03T11:44:40;1.50;;;1.30;;
62071;SDS011;48031;48.542;13.232;2023-04-03T11:48:48;1.40;;;1.10;;
62071;SDS011;48031;48.542;13.232;2023-04-03T11:56:53;4.18;;;2.67;;
62071;SDS011;48031;48.542;13.232;2023-04-03T12:05:24;1.65;;;1.27;;
62071;SDS011;48031;48.542;13.232;2023-04-03T12:17:56;2.63;;;2.42;;
62071;SDS011;48031;48.542;13.232;2023-04-03T12:30:28;2.30;;;1.80;;
62071;SDS011;48031;48.542;13.232;2023-04-03T12:38:49;2.75;;;2.55;;
62071;SDS011;48031;48.542;13.232;2023-04-03T12:47:31;1.98;;;1.42;;
62071;SDS011;48031;48.542;13.232;2023-04-03T12:51:38;1.60;;;1.38;;
62071;SDS011;48031;48.542;13.232;2023-04-03T12:55:42;1.63;;;1.52;;
62071;SDS011;48031;48.542;13.232;2023-04-03T12:59:44;3.13;;;2.90;;
62071;SDS011;48031;48.542;13.232;2023-04-03T13:03:48;3.22;;;2.80;;
62071;SDS011;48031;48.542;13.232;2023-04-03T13:08:02;2.95;;;2.75;;
62071;SDS011;48031;48.542;13.232;2023-04-03T13:12:14;2.83;;;2.60;;
62071;SDS011;48031;48.542;13.232;2023-04-03T13:16:17;2.28;;;1.58;;
62071;SDS011;48031;48.542;13.232;2023-04-03T13:20:20;3.42;;;1.67;;
62071;SDS011;48031;48.542;13.232;2023-04-03T13:24:23;5.65;;;3.10;;
62071;SDS011;48031;48.542;13.232;2023-04-03T13:28:26;3.15;;;2.85;;
62071;SDS011;48031;48.542;13.232;2023-04-03T13:32:28;2.92;;;2.63;;
62071;SDS011;48031;48.542;13.232;2023-04-03T13:36:33;2.70;;;2.50;;
62071;SDS011;48031;48.542;13.232;2023-04-03T13:40:47;2.22;;;1.80;;
62071;SDS011;48031;48.542;13.232;2023-04-03T14:02:13;1.73;;;1.60;;
62071;SDS011;48031;48.542;13.232;2023-04-03T14:06:16;2.45;;;2.05;;
62071;SDS011;48031;48.542;13.232;2023-04-03T14:10:18;2.38;;;2.00;;
62071;SDS011;48031;48.542;13.232;2023-04-03T14:14:22;2.50;;;2.00;;
62071;SDS011;48031;48.542;13.232;2023-04-03T14:18:27;2.13;;;1.80;;
62071;SDS011;48031;48.542;13.232;2023-04-03T14:22:30;1.75;;;1.60;;
62071;SDS011;48031;48.542;13.232;2023-04-03T14:26:33;3.83;;;2.40;;
62071;SDS011;48031;48.542;13.232;2023-04-03T14:30:35;2.92;;;2.00;;
62071;SDS011;48031;48.542;13.232;2023-04-03T14:34:38;3.30;;;2.00;;
62071;SDS011;48031;48.542;13.232;2023-04-03T14:38:41;3.83;;;2.20;;
62071;SDS011;48031;48.542;13.232;2023-04-03T14:42:43;3.20;;;1.90;;
62071;SDS011;48031;48.542;13.232;2023-04-03T14:46:45;2.03;;;1.80;;
62071;SDS011;48031;48.542;13.232;2023-04-03T14:50:57;2.60;;;2.17;;
62071;SDS011;48031;48.542;13.232;2023-04-03T14:55:06;2.20;;;1.70;;
62071;SDS011;48031;48.542;13.232;2023-04-03T14:59:09;3.10;;;2.15;;
62071;SDS011;48031;48.542;13.232;2023-04-03T15:03:14;3.13;;;2.80;;
62071;SDS011;48031;48.542;13.232;2023-04-03T15:07:18;3.40;;;2.13;;
62071;SDS011;48031;48.542;13.232;2023-04-03T15:11:20;2.88;;;2.20;;
62071;SDS011;48031;48.542;13.232;2023-04-03T15:15:22;3.17;;;2.10;;
62071;SDS011;48031;48.542;13.232;2023-04-03T15:19:25;2.70;;;1.80;;
62071;SDS011;48031;48.542;13.232;2023-04-03T15:23:27;3.05;;;2.20;;
62071;SDS011;48031;48.542;13.232;2023-04-03T15:27:30;4.28;;;2.58;;
62071;SDS011;48031;48.542;13.232;2023-04-03T15:31:32;3.08;;;2.50;;
62071;SDS011;48031;48.542;13.232;2023-04-03T15:35:34;3.97;;;2.83;;
62071;SDS011;48031;48.542;13.232;2023-04-03T15:39:36;2.05;;;1.77;;
62071;SDS011;48031;48.542;13.232;2023-04-03T15:43:37;2.22;;;1.95;;
62071;SDS011;48031;48.542;13.232;2023-04-03T15:47:39;2.58;;;2.00;;
62071;SDS011;48031;48.542;13.232;2023-04-03T15:51:41;3.55;;;2.38;;
62071;SDS011;48031;48.542;13.232;2023-04-03T15:55:43;2.50;;;2.28;;
62071;SDS011;48031;48.542;13.232;2023-04-03T15:59:45;3.65;;;2.42;;
62071;SDS011;48031;48.542;13.232;2023-04-03T16:03:47;5.10;;;2.60;;
62071;SDS011;48031;48.542;13.232;2023-04-03T16:07:49;2.63;;;1.80;;
62071;SDS011;48031;48.542;13.232;2023-04-03T16:11:51;1.92;;;1.52;;
62071;SDS011;48031;48.542;13.232;2023-04-03T16:15:53;2.95;;;1.70;;
62071;SDS011;48031;48.542;13.232;2023-04-03T16:19:56;4.05;;;2.22;;
62071;SDS011;48031;48.542;13.232;2023-04-03T16:23:58;2.17;;;1.90;;
62071;SDS011;48031;48.542;13.232;2023-04-03T16:28:00;4.05;;;2.47;;
62071;SDS011;48031;48.542;13.232;2023-04-03T16:32:02;3.08;;;1.95;;
62071;SDS011;48031;48.542;13.232;2023-04-03T16:36:04;2.28;;;1.90;;
62071;SDS011;48031;48.542;13.232;2023-04-03T16:40:06;2.40;;;2.08;;
62071;SDS011;48031;48.542;13.232;2023-04-03T16:44:09;3.50;;;2.35;;
62071;SDS011;48031;48.542;13.232;2023-04-03T16:48:11;3.75;;;2.38;;
62071;SDS011;48031;48.542;13.232;2023-04-03T16:52:15;4.60;;;2.80;;
62071;SDS011;48031;48.542;13.232;2023-04-03T16:56:17;2.53;;;2.00;;
62071;SDS011;48031;48.542;13.232;2023-04-03T17:00:19;3.35;;;2.08;;
62071;SDS011;48031;48.542;13.232;2023-04-03T17:04:21;2.58;;;2.13;;
62071;SDS011;48031;48.542;13.232;2023-04-03T17:08:23;2.58;;;1.90;;
62071;SDS011;48031;48.542;13.232;2023-04-03T17:12:25;4.85;;;2.50;;
62071;SDS011;48031;48.542;13.232;2023-04-03T17:16:27;2.50;;;2.20;;
62071;SDS011;48031;48.542;13.232;2023-04-03T17:20:31;4.43;;;2.80;;
62071;SDS011;48031;48.542;13.232;2023-04-03T17:24:35;3.47;;;1.90;;
62071;SDS011;48031;48.542;13.232;2023-04-03T17:28:37;2.88;;;2.30;;
62071;SDS011;48031;48.542;13.232;2023-04-03T17:32:41;2.75;;;2.00;;
62071;SDS011;48031;48.542;13.232;2023-04-03T17:36:43;3.40;;;2.40;;
62071;SDS011;48031;48.542;13.232;2023-04-03T17:40:45;3.67;;;1.92;;
62071;SDS011;48031;48.542;13.232;2023-04-03T17:44:47;4.05;;;2.08;;
62071;SDS011;48031;48.542;13.232;2023-04-03T17:48:49;3.08;;;1.83;;
62071;SDS011;48031;48.542;13.232;2023-04-03T17:52:51;2.58;;;2.13;;
62071;SDS011;48031;48.542;13.232;2023-04-03T17:56:53;3.45;;;1.98;;
62071;SDS011;48031;48.542;13.232;2023-04-03T18:00:55;4.22;;;2.22;;
62071;SDS011;48031;48.542;13.232;2023-04-03T18:04:57;3.83;;;2.58;;
62071;SDS011;48031;48.542;13.232;2023-04-03T18:09:03;2.00;;;1.65;;
62071;SDS011;48031;48.542;13.232;2023-04-03T18:13:08;4.32;;;1.75;;
62071;SDS011;48031;48.542;13.232;2023-04-03T18:17:10;4.43;;;2.10;;
62071;SDS011;48031;48.542;13.232;2023-04-03T18:21:12;2.22;;;1.90;;
62071;SDS011;48031;48.542;13.232;2023-04-03T18:25:15;2.30;;;1.92;;
62071;SDS011;48031;48.542;13.232;2023-04-03T18:29:17;2.20;;;1.90;;
62071;SDS011;48031;48.542;13.232;2023-04-03T18:33:20;2.40;;;2.00;;
62071;SDS011;48031;48.542;13.232;2023-04-03T18:37:22;3.22;;;2.20;;
62071;SDS011;48031;48.542;13.232;2023-04-03T18:41:26;2.80;;;2.00;;
62071;SDS011;48031;48.542;13.232;2023-04-03T18:45:31;3.72;;;2.30;;
62071;SDS011;48031;48.542;13.232;2023-04-03T18:49:33;3.22;;;2.13;;
62071;SDS011;48031;48.542;13.232;2023-04-03T18:53:36;2.65;;;2.10;;
62071;SDS011;48031;48.542;13.232;2023-04-03T18:57:44;2.85;;;1.75;;
62071;SDS011;48031;48.542;13.232;2023-04-03T19:01:46;2.72;;;2.05;;
62071;SDS011;48031;48.542;13.232;2023-04-03T19:05:48;2.00;;;1.80;;
62071;SDS011;48031;48.542;13.232;2023-04-03T19:09:49;2.00;;;1.70;;
62071;SDS011;48031;48.542;13.232;2023-04-03T19:13:52;2.90;;;1.92;;
62071;SDS011;48031;48.542;13.232;2023-04-03T19:18:13;6.53;;;2.20;;
62071;SDS011;48031;48.542;13.232;2023-04-03T19:22:15;2.88;;;1.85;;
62071;SDS011;48031;48.542;13.232;2023-04-03T19:26:18;2.42;;;2.05;;
62071;SDS011;48031;48.542;13.232;2023-04-03T19:30:19;2.03;;;1.83;;
62071;SDS011;48031;48.542;13.232;2023-04-03T19:34:21;3.38;;;2.38;;
62071;SDS011;48031;48.542;13.232;2023-04-03T19:38:23;1.75;;;1.65;;
62071;SDS011;48031;48.542;13.232;2023-04-03T19:42:26;4.28;;;2.00;;
62071;SDS011;48031;48.542;13.232;2023-04-03T19:46:29;2.60;;;2.00;;
62071;SDS011;48031;48.542;13.232;2023-04-03T19:50:32;1.90;;;1.50;;
62071;SDS011;48031;48.542;13.232;2023-04-03T19:54:34;1.95;;;1.70;;
62071;SDS011;48031;48.542;13.232;2023-04-03T19:58:36;2.10;;;1.75;;
62071;SDS011;48031;48.542;13.232;2023-04-03T20:02:39;2.38;;;1.60;;
62071;SDS011;48031;48.542;13.232;2023-04-03T20:06:41;2.25;;;1.67;;
62071;SDS011;48031;48.542;13.232;2023-04-03T20:10:42;2.35;;;1.70;;
62071;SDS011;48031;48.542;13.232;2023-04-03T20:14:44;1.55;;;1.20;;
62071;SDS011;48031;48.542;13.232;2023-04-03T20:18:47;2.95;;;1.67;;
62071;SDS011;48031;48.542;13.232;2023-04-03T20:22:52;4.22;;;1.90;;
62071;SDS011;48031;48.542;13.232;2023-04-03T20:26:54;2.95;;;2.08;;
62071;SDS011;48031;48.542;13.232;2023-04-03T20:30:57;1.60;;;1.50;;
62071;SDS011;48031;48.542;13.232;2023-04-03T20:35:02;3.80;;;2.08;;
62071;SDS011;48031;48.542;13.232;2023-04-03T20:39:05;3.83;;;1.88;;
62071;SDS011;48031;48.542;13.232;2023-04-03T20:43:07;6.53;;;2.13;;
62071;SDS011;48031;48.542;13.232;2023-04-03T20:47:09;2.00;;;1.80;;
62071;SDS011;48031;48.542;13.232;2023-04-03T20:51:12;1.70;;;1.60;;
62071;SDS011;48031;48.542;13.232;2023-04-03T20:55:17;3.42;;;1.90;;
62071;SDS011;48031;48.542;13.232;2023-04-03T20:59:18;2.42;;;2.00;;
62071;SDS011;48031;48.542;13.232;2023-04-03T21:03:21;2.60;;;1.60;;
62071;SDS011;48031;48.542;13.232;2023-04-03T21:20:45;2.58;;;2.10;;
62071;SDS011;48031;48.542;13.232;2023-04-03T21:24:48;2.88;;;1.90;;
62071;SDS011;48031;48.542;13.232;2023-04-03T21:28:50;1.65;;;1.55;;
62071;SDS011;48031;48.542;13.232;2023-04-03T21:32:53;2.83;;;1.70;;
62071;SDS011;48031;48.542;13.232;2023-04-03T21:36:55;2.10;;;1.60;;
62071;SDS011;48031;48.542;13.232;2023-04-03T21:41:01;1.50;;;1.40;;
62071;SDS011;48031;48.542;13.232;2023-04-03T21:45:03;2.15;;;1.40;;
62071;SDS011;48031;48.542;13.232;2023-04-03T21:49:06;2.15;;;1.48;;
62071;SDS011;48031;48.542;13.232;2023-04-03T21:53:08;1.40;;;1.30;;
62071;SDS011;48031;48.542;13.232;2023-04-03T21:57:10;2.75;;;1.42;;
62071;SDS011;48031;48.542;13.232;2023-04-03T22:01:12;2.85;;;1.50;;
62071;SDS011;48031;48.542;13.232;2023-04-03T22:05:15;2.00;;;1.80;;
62071;SDS011;48031;48.542;13.232;2023-04-03T22:09:17;2.10;;;1.80;;
62071;SDS011;48031;48.542;13.232;2023-04-03T22:13:19;1.58;;;1.38;;
62071;SDS011;48031;48.542;13.232;2023-04-03T22:17:21;3.10;;;1.92;;
62071;SDS011;48031;48.542;13.232;2023-04-03T22:21:22;2.67;;;2.00;;
62071;SDS011;48031;48.542;13.232;2023-04-03T22:25:24;2.17;;;1.45;;
62071;SDS011;48031;48.542;13.232;2023-04-03T22:29:26;1.95;;;1.40;;
62071;SDS011;48031;48.542;13.232;2023-04-03T22:33:29;2.67;;;1.73;;
62071;SDS011;48031;48.542;13.232;2023-04-03T22:37:31;2.08;;;1.70;;
62071;SDS011;48031;48.542;13.232;2023-04-03T22:41:33;2.33;;;1.80;;
62071;SDS011;48031;48.542;13.232;2023-04-03T22:45:35;2.65;;;1.70;;
62071;SDS011;48031;48.542;13.232;2023-04-03T22:49:37;3.85;;;1.73;;
62071;SDS011;48031;48.542;13.232;2023-04-03T22:53:39;2.47;;;1.90;;
62071;SDS011;48031;48.542;13.232;2023-04-03T22:57:44;4.25;;;2.50;;
62071;SDS011;48031;48.542;13.232;2023-04-03T23:01:46;2.22;;;1.83;;
62071;SDS011;48031;48.542;13.232;2023-04-03T23:05:48;2.05;;;1.70;;
62071;SDS011;48031;48.542;13.232;2023-04-03T23:09:53;4.07;;;1.85;;
62071;SDS011;48031;48.542;13.232;2023-04-03T23:13:55;3.28;;;1.85;;
62071;SDS011;48031;48.542;13.232;2023-04-03T23:17:57;2.95;;;1.90;;
62071;SDS011;48031;48.542;13.232;2023-04-03T23:21:58;3.85;;;1.85;;
62071;SDS011;48031;48.542;13.232;2023-04-03T23:26:00;2.97;;;2.00;;
62071;SDS011;48031;48.542;13.232;2023-04-03T23:30:03;4.50;;;2.30;;
62071;SDS011;48031;48.542;13.232;2023-04-03T23:34:06;3.70;;;2.45;;
62071;SDS011;48031;48.542;13.232;2023-04-03T23:38:07;3.47;;;2.20;;
62071;SDS011;48031;48.542;13.232;2023-04-03T23:42:09;4.82;;;2.35;;
62071;SDS011;48031;48.542;13.232;2023-04-03T23:46:12;5.88;;;2.17;;
62071;SDS011;48031;48.542;13.232;2023-04-03T23:50:14;2.60;;;2.10;;
62071;SDS011;48031;48.542;13.232;2023-04-03T23:54:16;3.25;;;2.28;;
62071;SDS011;48031;48.542;13.232;2023-04-03T23:58:17;3.08;;;2.17;;
